Time;durP1;ratioP1;P1;durP2;ratioP2;P2;SDS_P1;SDS_P2;PMS_P1;PMS_P2;Temp;Humidity;BMP_temperature;BMP_pressure;BME280_temperature;BME280_humidity;BME280_pressure;Samples;Min_cycle;Max_cycle;Signal;HPM_P1;HPM_P2
2022/06/19 00:02:21;;;;;;;5.63;3.05;;;;;;;20.82;59.72;100325.00;5033942;28;20033;-71
2022/06/19 00:04:49;;;;;;;2.92;2.50;;;;;;;20.77;60.02;100311.09;5033932;28;20036;-70
2022/06/19 00:07:15;;;;;;;9.15;2.95;;;;;;;20.63;60.69;100312.00;5016018;28;20031;-69
2022/06/19 00:09:41;;;;;;;5.03;2.80;;;;;;;20.65;60.47;100309.22;5033931;28;20030;-70
2022/06/19 00:12:09;;;;;;;3.67;2.70;;;;;;;20.65;60.46;100306.56;5033606;28;20032;-69
2022/06/19 00:14:34;;;;;;;4.90;2.75;;;;;;;20.72;60.31;100299.00;5016404;28;20052;-70
2022/06/19 00:17:01;;;;;;;3.65;2.50;;;;;;;20.83;59.87;100286.69;5032911;28;20401;-70
2022/06/19 00:19:27;;;;;;;4.85;2.90;;;;;;;20.78;59.89;100277.22;5049149;28;20440;-70
2022/06/19 00:21:52;;;;;;;3.28;2.47;;;;;;;20.76;60.08;100269.34;5033371;28;20025;-70
2022/06/19 00:24:18;;;;;;;3.88;2.80;;;;;;;20.91;59.83;100272.81;5016058;28;20038;-70
2022/06/19 00:26:43;;;;;;;5.13;2.80;;;;;;;20.90;59.79;100271.97;5015943;28;20041;-69
2022/06/19 00:29:09;;;;;;;3.85;2.70;;;;;;;20.83;60.03;100276.00;5033579;28;20026;-69
2022/06/19 00:31:35;;;;;;;4.45;3.13;;;;;;;20.83;60.02;100281.34;5033349;28;20037;-69
2022/06/19 00:34:00;;;;;;;3.65;2.70;;;;;;;20.84;59.90;100276.84;5049041;28;20074;-69
2022/06/19 00:36:27;;;;;;;3.45;2.65;;;;;;;20.85;60.07;100284.75;5033166;28;20034;-70
2022/06/19 00:38:54;;;;;;;6.20;3.42;;;;;;;20.88;59.86;100275.69;5015779;28;20481;-70
2022/06/19 00:41:19;;;;;;;3.45;2.80;;;;;;;20.89;59.81;100277.38;5015793;28;20124;-69
2022/06/19 00:44:03;;;;;;;4.68;2.67;;;;;;;20.96;59.72;100278.69;5015706;28;20172;-69
2022/06/19 00:46:46;;;;;;;3.78;2.75;;;;;;;20.90;59.82;100274.63;5033645;28;20124;-70
2022/06/19 00:49:34;;;;;;;5.22;2.92;;;;;;;20.90;59.65;100277.31;5033495;28;20041;-70
2022/06/19 00:52:02;;;;;;;4.45;2.83;;;;;;;20.84;59.80;100277.69;5018745;28;20049;-70
2022/06/19 00:54:31;;;;;;;2.80;2.40;;;;;;;20.81;59.97;100271.69;5033549;28;20037;-70
2022/06/19 00:56:56;;;;;;;7.45;3.35;;;;;;;20.81;60.00;100266.34;5016283;28;20033;-70
2022/06/19 00:59:22;;;;;;;5.43;2.65;;;;;;;20.76;59.99;100260.47;5033298;28;20053;-70
2022/06/19 01:01:48;;;;;;;4.13;2.97;;;;;;;20.70;60.50;100264.38;5033299;28;20041;-69
2022/06/19 01:04:21;;;;;;;3.88;2.97;;;;;;;20.62;60.58;100261.34;5033199;28;20073;-69
2022/06/19 01:06:48;;;;;;;4.35;3.00;;;;;;;20.55;60.69;100252.06;5033346;28;20036;-69
2022/06/19 01:09:14;;;;;;;7.20;3.22;;;;;;;20.55;60.72;100241.38;5033008;28;20164;-69
2022/06/19 01:11:39;;;;;;;4.38;2.95;;;;;;;20.56;60.73;100248.44;5032905;28;20499;-70
2022/06/19 01:14:10;;;;;;;4.47;2.97;;;;;;;20.55;60.79;100254.75;5033236;28;20030;-70
2022/06/19 01:16:36;;;;;;;5.35;2.85;;;;;;;20.56;60.90;100262.63;5032999;28;20167;-69
2022/06/19 01:19:02;;;;;;;5.03;3.35;;;;;;;20.50;60.90;100255.00;5032889;28;20061;-69
2022/06/19 01:21:34;;;;;;;5.13;3.00;;;;;;;20.52;60.94;100261.13;5033145;28;20061;-69
2022/06/19 01:24:15;;;;;;;4.53;2.63;;;;;;;20.51;61.09;100261.22;5033129;28;20112;-70
2022/06/19 01:26:44;;;;;;;5.63;2.95;;;;;;;20.47;61.05;100270.31;5032927;28;20116;-70
2022/06/19 01:29:11;;;;;;;3.72;3.00;;;;;;;20.46;61.00;100263.28;5014994;28;20119;-69
2022/06/19 01:31:52;;;;;;;4.32;3.13;;;;;;;20.43;61.28;100273.22;5032676;28;20034;-70
2022/06/19 01:34:27;;;;;;;7.25;2.80;;;;;;;20.39;61.17;100278.84;5048683;28;20175;-69
2022/06/19 01:37:02;;;;;;;5.65;2.65;;;;;;;20.35;61.36;100283.53;5032924;28;20032;-69
2022/06/19 01:39:34;;;;;;;4.88;2.58;;;;;;;20.27;61.44;100285.81;5032863;28;20029;-69
2022/06/19 01:42:03;;;;;;;3.47;2.65;;;;;;;20.22;61.75;100290.56;5033059;28;20030;-69
2022/06/19 01:44:29;;;;;;;4.53;2.97;;;;;;;20.13;61.96;100281.34;5032934;28;20030;-69
2022/06/19 01:46:55;;;;;;;4.00;2.90;;;;;;;20.09;62.11;100277.16;5032851;28;20033;-69
2022/06/19 01:49:22;;;;;;;5.25;3.33;;;;;;;20.08;62.04;100274.59;5032726;28;20035;-69
2022/06/19 01:51:49;;;;;;;5.38;3.17;;;;;;;20.06;62.25;100273.81;5034980;28;20175;-69
2022/06/19 01:54:20;;;;;;;3.28;2.97;;;;;;;20.06;62.13;100265.81;5036345;28;20029;-69
2022/06/19 01:56:46;;;;;;;4.63;3.50;;;;;;;20.04;62.16;100268.59;5036632;28;20077;-69
2022/06/19 01:59:12;;;;;;;5.80;3.53;;;;;;;20.01;62.34;100262.59;5036328;28;20065;-69
2022/06/19 02:01:39;;;;;;;7.32;4.15;;;;;;;20.00;62.29;100274.22;5036639;28;20033;-69
2022/06/19 02:04:06;;;;;;;6.15;4.20;;;;;;;19.91;62.53;100273.84;5036094;28;20476;-70
2022/06/19 02:06:41;;;;;;;7.15;4.75;;;;;;;19.89;62.28;100265.06;5035877;28;20041;-69
2022/06/19 02:09:08;;;;;;;4.82;4.10;;;;;;;19.90;62.53;100264.09;5035910;28;20446;-69
2022/06/19 02:11:35;;;;;;;7.40;4.50;;;;;;;19.87;62.55;100260.81;5036020;28;20477;-69
2022/06/19 02:14:06;;;;;;;6.97;4.57;;;;;;;19.87;62.67;100259.00;5035831;28;20065;-69
2022/06/19 02:16:35;;;;;;;6.90;4.60;;;;;;;19.89;62.47;100251.72;5035838;28;20041;-69
2022/06/19 02:19:01;;;;;;;4.50;4.03;;;;;;;19.91;62.36;100252.50;5035859;28;20104;-68
2022/06/19 02:21:48;;;;;;;7.78;4.30;;;;;;;19.95;62.68;100247.84;5035880;28;20125;-69
2022/06/19 02:24:17;;;;;;;4.43;3.80;;;;;;;19.97;62.23;100251.25;5035672;28;20030;-69
2022/06/19 02:26:43;;;;;;;4.63;4.20;;;;;;;20.04;62.23;100247.25;5035909;28;20034;-69
2022/06/19 02:29:12;;;;;;;6.55;4.47;;;;;;;20.03;62.02;100250.88;5035843;28;20030;-69
2022/06/19 02:31:40;;;;;;;5.93;4.30;;;;;;;20.09;61.80;100238.97;5035578;28;20465;-69
2022/06/19 02:34:17;;;;;;;6.68;4.90;;;;;;;20.16;62.07;100232.28;5035659;28;20057;-69
2022/06/19 02:36:49;;;;;;;6.55;4.40;;;;;;;20.18;61.67;100233.88;5035804;28;20124;-69
2022/06/19 02:39:21;;;;;;;4.43;4.00;;;;;;;20.26;61.69;100235.22;5035912;28;20029;-69
2022/06/19 02:42:17;;;;;;;5.47;4.00;;;;;;;20.34;61.63;100247.09;5017733;28;20478;-70
2022/06/19 02:44:43;;;;;;;5.07;3.70;;;;;;;20.32;61.37;100242.84;5035478;28;20385;-69
2022/06/19 02:47:09;;;;;;;6.05;4.00;;;;;;;20.43;61.02;100238.53;5050556;28;20033;-69
2022/06/19 02:49:35;;;;;;;5.55;4.18;;;;;;;20.33;61.27;100225.88;5035362;28;20045;-69
2022/06/19 02:52:05;;;;;;;7.43;4.40;;;;;;;20.23;61.45;100214.94;5035009;28;20053;-69
2022/06/19 02:54:32;;;;;;;4.25;3.70;;;;;;;20.15;61.68;100209.25;5034989;28;20107;-69
2022/06/19 02:56:58;;;;;;;6.07;4.97;;;;;;;20.17;61.59;100215.31;5035389;28;20049;-69
2022/06/19 02:59:23;;;;;;;6.13;4.65;;;;;;;20.14;61.61;100227.03;5017561;28;20044;-69
2022/06/19 03:01:49;;;;;;;7.55;4.60;;;;;;;20.18;61.63;100231.22;5034949;28;20068;-69
2022/06/19 03:04:20;;;;;;;6.13;4.80;;;;;;;20.23;61.26;100233.63;5035354;28;20029;-69
2022/06/19 03:06:45;;;;;;;5.68;4.35;;;;;;;20.26;61.25;100230.72;5035074;28;20040;-70
2022/06/19 03:09:11;;;;;;;8.25;5.28;;;;;;;20.32;60.99;100243.69;5034990;28;20388;-69
2022/06/19 03:11:36;;;;;;;8.05;5.78;;;;;;;20.31;61.20;100235.81;5017140;28;20079;-69
2022/06/19 03:14:01;;;;;;;6.97;4.80;;;;;;;20.33;61.17;100248.06;5034973;28;20038;-69
2022/06/19 03:16:27;;;;;;;6.90;5.65;;;;;;;20.35;61.02;100240.84;5050573;28;20087;-70
2022/06/19 03:18:53;;;;;;;6.28;5.68;;;;;;;20.36;61.07;100244.34;5035224;28;20038;-69
2022/06/19 03:21:18;;;;;;;7.72;6.10;;;;;;;20.42;61.01;100246.59;5034738;28;20046;-69
2022/06/19 03:23:44;;;;;;;8.48;5.78;;;;;;;20.46;60.67;100242.78;5034366;28;20041;-68
2022/06/19 03:26:09;;;;;;;8.10;5.60;;;;;;;20.57;60.45;100244.81;5034863;28;20044;-69
2022/06/19 03:28:35;;;;;;;7.90;5.43;;;;;;;20.65;60.34;100246.00;5034402;28;20026;-69
2022/06/19 03:31:00;;;;;;;7.35;5.30;;;;;;;20.75;59.97;100238.25;5034300;28;20369;-69
2022/06/19 03:33:25;;;;;;;9.40;6.63;;;;;;;20.83;59.96;100249.28;5016841;28;20037;-69
2022/06/19 03:35:52;;;;;;;8.23;6.22;;;;;;;20.91;59.84;100251.47;5034513;28;20592;-71
2022/06/19 03:38:18;;;;;;;7.60;6.65;;;;;;;20.99;59.70;100253.63;5034325;28;20037;-69
2022/06/19 03:40:44;;;;;;;7.60;5.97;;;;;;;21.02;59.65;100235.53;5034734;28;20032;-69
2022/06/19 03:43:10;;;;;;;6.50;5.90;;;;;;;21.06;59.52;100237.03;5034391;28;20044;-69
2022/06/19 03:45:36;;;;;;;7.82;5.65;;;;;;;21.10;59.68;100233.22;5016635;28;20053;-69
2022/06/19 03:48:02;;;;;;;7.43;5.55;;;;;;;21.13;59.54;100230.34;5033887;28;20449;-69
2022/06/19 03:50:28;;;;;;;6.60;5.50;;;;;;;21.17;59.39;100234.50;5034144;28;20029;-69
2022/06/19 03:52:53;;;;;;;9.55;5.90;;;;;;;21.25;59.30;100225.97;5034236;28;20058;-69
2022/06/19 03:55:19;;;;;;;6.07;5.28;;;;;;;21.30;59.11;100226.50;5034173;28;20444;-69
2022/06/19 03:57:44;;;;;;;7.45;5.35;;;;;;;21.38;58.98;100216.22;5034208;28;20073;-69
2022/06/19 04:00:15;;;;;;;8.70;5.50;;;;;;;21.40;59.11;100219.63;5016307;28;20033;-69
2022/06/19 04:02:41;;;;;;;7.10;5.95;;;;;;;21.48;58.98;100216.41;5034296;28;20065;-70
2022/06/19 04:05:07;;;;;;;6.15;5.32;;;;;;;21.51;58.73;100218.88;5033898;28;20046;-69
2022/06/19 04:07:32;;;;;;;8.45;6.07;;;;;;;21.57;58.53;100209.56;5016347;28;20091;-69
2022/06/19 04:09:59;;;;;;;8.65;5.10;;;;;;;21.66;58.41;100206.22;5033678;28;20025;-69
2022/06/19 04:12:24;;;;;;;5.75;5.15;;;;;;;21.81;58.23;100221.19;4999546;28;20033;-69
2022/06/19 04:14:51;;;;;;;6.78;5.13;;;;;;;22.00;57.56;100231.44;5033558;28;20033;-69
2022/06/19 04:17:16;;;;;;;5.75;5.03;;;;;;;22.09;57.44;100230.78;5016134;28;20042;-69
2022/06/19 04:19:42;;;;;;;5.97;5.20;;;;;;;22.17;57.13;100230.25;5016081;28;20318;-69
2022/06/19 04:22:07;;;;;;;6.53;5.47;;;;;;;22.16;57.38;100233.06;5033641;28;20504;-70
2022/06/19 04:24:32;;;;;;;5.97;5.10;;;;;;;22.17;57.29;100230.25;5033695;28;20038;-69
2022/06/19 04:26:58;;;;;;;7.95;5.43;;;;;;;22.14;57.45;100235.81;5048949;28;20034;-69
2022/06/19 04:29:23;;;;;;;7.45;5.40;;;;;;;22.22;57.38;100219.22;5015638;28;20083;-69
2022/06/19 04:31:49;;;;;;;6.97;5.47;;;;;;;22.36;57.10;100213.72;5015875;28;20032;-69
2022/06/19 04:34:15;;;;;;;5.90;5.35;;;;;;;22.44;56.80;100202.47;5015833;28;20041;-69
2022/06/19 04:36:40;;;;;;;5.18;4.65;;;;;;;22.65;56.31;100206.22;5033365;28;20030;-69
2022/06/19 04:39:06;;;;;;;6.00;5.18;;;;;;;22.81;56.18;100209.44;5016030;28;20087;-69
2022/06/19 04:41:36;;;;;;;6.22;5.28;;;;;;;22.69;56.26;100210.38;5033498;28;20065;-69
2022/06/19 04:44:04;;;;;;;7.07;4.88;;;;;;;22.70;56.32;100211.22;5049072;28;20048;-69
2022/06/19 04:46:30;;;;;;;7.82;4.97;;;;;;;22.62;56.52;100204.63;5015784;28;20033;-69
2022/06/19 04:48:56;;;;;;;7.57;4.70;;;;;;;22.77;56.15;100193.72;5033357;28;20092;-71
2022/06/19 04:51:22;;;;;;;5.13;4.35;;;;;;;22.68;56.42;100203.31;5033271;28;20037;-70
2022/06/19 04:53:47;;;;;;;6.10;5.03;;;;;;;22.64;56.50;100201.84;5033262;28;20452;-71
2022/06/19 04:56:15;;;;;;;7.43;5.25;;;;;;;22.68;56.72;100203.31;5033256;28;20037;-71
2022/06/19 04:58:41;;;;;;;5.60;4.72;;;;;;;22.68;56.46;100192.59;5031972;28;20037;-70
2022/06/19 05:01:14;;;;;;;7.00;5.20;;;;;;;22.72;56.52;100188.72;5015484;28;20492;-71
2022/06/19 05:03:39;;;;;;;6.38;5.15;;;;;;;22.67;56.60;100190.91;5015590;28;20029;-69
2022/06/19 05:06:05;;;;;;;7.07;5.57;;;;;;;22.79;56.47;100194.47;5031992;28;20492;-70
2022/06/19 05:08:32;;;;;;;4.82;4.32;;;;;;;22.76;56.13;100176.81;5015641;28;20033;-70
2022/06/19 05:10:57;;;;;;;6.30;4.53;;;;;;;22.88;56.09;100167.84;5032904;28;20419;-70
2022/06/19 05:13:23;;;;;;;4.68;3.65;;;;;;;23.07;55.45;100164.66;5031778;28;20033;-71
2022/06/19 05:15:49;;;;;;;4.75;4.13;;;;;;;23.26;55.12;100166.75;5048373;28;20042;-72
2022/06/19 05:18:17;;;;;;;5.10;3.42;;;;;;;23.36;54.72;100161.53;5033119;28;20042;-70
2022/06/19 05:20:42;;;;;;;4.93;3.63;;;;;;;23.50;54.23;100157.75;5016152;28;20034;-70
2022/06/19 05:23:09;;;;;;;6.43;3.67;;;;;;;23.67;53.56;100162.66;4999013;28;20052;-70
2022/06/19 05:25:34;;;;;;;4.32;3.42;;;;;;;23.73;53.42;100161.31;5016387;28;20100;-70
2022/06/19 05:28:00;;;;;;;6.45;3.67;;;;;;;23.67;53.42;100162.66;5037066;28;20557;-71
2022/06/19 05:30:26;;;;;;;5.82;4.03;;;;;;;23.76;53.19;100164.59;5036804;28;20038;-71
2022/06/19 05:32:52;;;;;;;5.63;3.08;;;;;;;23.67;53.02;100154.63;5018702;28;20034;-70
2022/06/19 05:35:17;;;;;;;3.67;2.97;;;;;;;23.64;52.89;100148.63;5036562;28;20049;-70
2022/06/19 05:37:43;;;;;;;4.63;3.30;;;;;;;23.74;52.93;100155.00;5036886;28;20029;-70
2022/06/19 05:40:09;;;;;;;2.92;2.63;;;;;;;23.96;52.52;100156.78;5036354;28;20474;-71
2022/06/19 05:42:37;;;;;;;4.95;3.00;;;;;;;24.05;52.03;100158.72;5052094;28;20041;-70
2022/06/19 05:45:03;;;;;;;4.28;2.60;;;;;;;24.15;51.66;100148.94;5036606;28;20029;-70
2022/06/19 05:47:29;;;;;;;4.03;2.58;;;;;;;24.31;51.30;100151.22;5036387;28;20025;-70
2022/06/19 05:49:56;;;;;;;3.65;2.80;;;;;;;24.42;51.05;100153.91;5036542;28;20031;-70
2022/06/19 05:52:24;;;;;;;4.75;2.85;;;;;;;24.51;50.88;100138.84;5036627;28;20057;-70
2022/06/19 05:54:52;;;;;;;4.13;2.55;;;;;;;24.71;50.66;100135.34;5036234;28;20124;-71
2022/06/19 05:57:18;;;;;;;4.57;2.85;;;;;;;24.81;50.39;100130.88;5051777;28;20477;-70
2022/06/19 05:59:43;;;;;;;4.03;2.85;;;;;;;24.89;50.00;100126.69;5036272;28;20417;-70
2022/06/19 06:02:13;;;;;;;3.65;2.25;;;;;;;24.96;49.80;100130.56;5036222;28;20454;-70
2022/06/19 06:04:38;;;;;;;4.03;2.10;;;;;;;24.94;50.15;100129.88;5035988;28;20477;-70
2022/06/19 06:07:07;;;;;;;5.25;2.25;;;;;;;25.11;49.68;100123.91;5018488;28;20088;-70
2022/06/19 06:09:33;;;;;;;3.85;2.20;;;;;;;25.23;49.41;100122.00;5018319;28;20044;-70
2022/06/19 06:11:59;;;;;;;3.08;2.38;;;;;;;25.38;48.92;100123.34;5035934;28;20034;-70
2022/06/19 06:14:24;;;;;;;3.83;2.33;;;;;;;25.54;48.68;100106.72;5018257;28;20040;-70
2022/06/19 06:16:49;;;;;;;3.00;2.45;;;;;;;25.68;48.23;100110.84;5035933;28;20362;-70
2022/06/19 06:19:15;;;;;;;3.22;2.20;;;;;;;25.71;48.14;100113.28;5035990;28;20128;-71
2022/06/19 06:21:42;;;;;;;2.58;2.00;;;;;;;25.79;47.60;100103.56;5036161;28;20362;-71
2022/06/19 06:24:07;;;;;;;3.83;1.77;;;;;;;25.92;47.29;100099.75;5018303;28;20048;-71
2022/06/19 06:26:33;;;;;;;2.45;1.98;;;;;;;25.89;47.25;100095.50;5035866;28;20042;-71
2022/06/19 06:28:59;;;;;;;2.65;1.73;;;;;;;26.10;46.74;100092.72;5035814;28;20088;-72
2022/06/19 06:31:25;;;;;;;2.70;1.73;;;;;;;26.19;46.39;100099.94;5035682;28;20073;-71
2022/06/19 06:33:51;;;;;;;2.72;1.75;;;;;;;26.30;45.94;100090.91;5035737;28;20044;-71
2022/06/19 06:36:20;;;;;;;3.28;1.73;;;;;;;26.33;46.02;100092.44;5050738;28;20038;-71
2022/06/19 06:38:45;;;;;;;2.17;1.70;;;;;;;26.43;45.58;100090.63;5035545;28;20042;-72
2022/06/19 06:41:13;;;;;;;2.10;1.58;;;;;;;26.53;45.46;100091.47;5035510;28;20049;-72
2022/06/19 06:43:44;;;;;;;3.95;1.63;;;;;;;26.62;44.88;100085.25;5035216;28;20401;-71
2022/06/19 06:46:18;;;;;;;1.90;1.25;;;;;;;26.67;44.26;100085.66;5035994;28;20124;-73
2022/06/19 06:48:44;;;;;;;1.65;1.20;;;;;;;26.67;43.99;100082.97;5035333;28;20038;-71
2022/06/19 06:51:13;;;;;;;2.85;1.30;;;;;;;26.80;44.27;100095.28;5035191;28;20116;-71
2022/06/19 06:53:39;;;;;;;2.40;1.27;;;;;;;26.86;44.07;100092.03;5035285;28;20115;-71
2022/06/19 06:56:05;;;;;;;3.05;1.27;;;;;;;26.88;43.64;100098.09;5035512;28;20400;-71
2022/06/19 06:58:31;;;;;;;2.08;1.20;;;;;;;26.93;42.68;100095.81;5034873;28;20091;-71
2022/06/19 07:00:57;;;;;;;2.95;1.30;;;;;;;26.73;43.29;100090.50;5035241;28;20061;-71
2022/06/19 07:03:22;;;;;;;2.40;1.23;;;;;;;26.74;43.43;100086.78;5035359;28;20073;-72
2022/06/19 07:05:48;;;;;;;1.52;1.20;;;;;;;26.92;43.07;100088.72;5035007;28;20038;-71
2022/06/19 07:08:13;;;;;;;1.40;0.80;;;;;;;27.07;42.10;100084.59;5017407;28;20033;-71
2022/06/19 07:10:39;;;;;;;2.35;1.00;;;;;;;27.14;41.91;100083.03;5034971;28;20442;-72
2022/06/19 07:13:04;;;;;;;2.20;0.80;;;;;;;27.11;42.02;100077.94;5034868;28;20088;-71
2022/06/19 07:15:30;;;;;;;1.73;1.05;;;;;;;27.18;41.69;100076.34;5035040;28;20029;-71
2022/06/19 07:17:58;;;;;;;2.22;1.10;;;;;;;27.18;41.75;100068.25;5017642;28;20481;-71
2022/06/19 07:20:24;;;;;;;1.90;1.10;;;;;;;27.32;41.44;100064.22;5034554;28;20560;-72
2022/06/19 07:22:49;;;;;;;2.22;1.20;;;;;;;27.54;41.08;100064.84;5000764;28;20061;-72
2022/06/19 07:25:18;;;;;;;2.10;1.13;;;;;;;27.72;40.67;100061.16;5034691;28;20044;-72
2022/06/19 07:27:44;;;;;;;2.72;1.38;;;;;;;27.96;40.10;100052.53;5034378;28;20049;-72
2022/06/19 07:30:16;;;;;;;1.60;1.40;;;;;;;28.28;39.64;100061.94;5034914;28;20033;-72
2022/06/19 07:32:41;;;;;;;1.88;1.35;;;;;;;28.54;39.25;100067.44;5016781;28;20025;-72
2022/06/19 07:35:07;;;;;;;2.22;1.35;;;;;;;28.60;39.09;100065.97;5016733;28;20041;-72
2022/06/19 07:37:33;;;;;;;1.85;1.17;;;;;;;28.64;39.05;100062.78;5049881;28;20045;-73
2022/06/19 07:39:58;;;;;;;2.88;1.33;;;;;;;28.76;39.03;100067.94;5034327;28;20025;-71
2022/06/19 07:42:24;;;;;;;1.98;1.48;;;;;;;28.85;39.13;100064.31;5034171;28;20370;-72
2022/06/19 07:44:49;;;;;;;2.70;1.42;;;;;;;28.96;38.71;100073.00;5034410;28;20044;-71
2022/06/19 07:50:10;;;;;;;2.05;1.38;;;;;;;29.06;38.97;100054.00;5033619;28;20041;-71
2022/06/19 07:52:42;;;;;;;2.20;1.52;;;;;;;29.03;38.95;100048.88;5033975;28;20095;-71
2022/06/19 07:55:11;;;;;;;2.30;1.40;;;;;;;29.01;39.02;100040.09;5034488;28;20030;-71
2022/06/19 07:57:37;;;;;;;1.83;1.33;;;;;;;29.00;38.92;100043.78;5016689;28;20447;-73
2022/06/19 08:00:16;;;;;;;2.35;1.42;;;;;;;28.86;38.54;100039.81;5034124;28;20042;-72
2022/06/19 08:02:46;;;;;;;2.28;1.60;;;;;;;28.88;39.15;100037.78;5034201;28;20030;-73
2022/06/19 08:05:12;;;;;;;2.22;1.58;;;;;;;28.89;38.97;100028.69;5016285;28;20040;-71
2022/06/19 08:07:39;;;;;;;4.10;1.55;;;;;;;28.92;38.96;100020.22;5033164;28;20037;-71
2022/06/19 08:10:06;;;;;;;1.67;1.38;;;;;;;28.87;39.27;100009.06;5033779;28;20037;-72
2022/06/19 08:12:31;;;;;;;1.95;1.30;;;;;;;28.85;39.01;100002.13;5033954;28;20115;-72
2022/06/19 08:14:57;;;;;;;3.15;1.48;;;;;;;28.87;39.08;100000.94;5016218;28;20065;-72
2022/06/19 08:17:22;;;;;;;2.00;1.33;;;;;;;28.86;38.99;99987.59;5033689;28;20030;-72
2022/06/19 08:19:50;;;;;;;2.35;1.60;;;;;;;28.82;39.41;99988.94;5033768;28;20029;-71
2022/06/19 08:22:15;;;;;;;6.38;1.52;;;;;;;28.91;39.20;99985.25;5016858;28;20037;-61
2022/06/19 08:24:41;;;;;;;3.15;1.60;;;;;;;28.72;39.62;99991.72;4999559;28;20033;-68
2022/06/19 08:27:06;;;;;;;2.13;1.42;;;;;;;28.57;39.95;99996.88;5033582;28;20032;-69
2022/06/19 08:29:33;;;;;;;2.00;1.40;;;;;;;27.71;40.90;99996.56;5033489;28;20465;-68
2022/06/19 08:31:59;;;;;;;1.80;1.27;;;;;;;27.96;41.04;99992.28;5015803;28;20026;-68
2022/06/19 08:34:26;;;;;;;2.72;1.70;;;;;;;27.90;41.06;99992.91;5033639;28;20033;-68
2022/06/19 08:36:52;;;;;;;3.25;1.60;;;;;;;27.64;41.63;100004.41;5016011;28;20103;-68
2022/06/19 08:39:19;;;;;;;2.72;1.20;;;;;;;27.74;41.54;99999.84;5049042;28;20037;-69
2022/06/19 08:42:22;;;;;;;2.95;1.40;;;;;;;27.39;42.38;99988.97;5015808;28;20465;-69
2022/06/19 08:44:57;;;;;;;3.72;1.60;;;;;;;27.43;42.25;99982.25;5033395;28;20025;-69
2022/06/19 08:47:53;;;;;;;1.77;1.08;;;;;;;27.62;41.56;99963.25;5015630;28;20037;-69
2022/06/19 08:50:48;;;;;;;3.28;1.40;;;;;;;27.88;41.52;99957.13;5048907;28;20112;-69
2022/06/19 08:53:30;;;;;;;2.75;1.73;;;;;;;27.96;42.12;99946.38;4993850;28;20045;-69
2022/06/19 08:56:04;;;;;;;3.55;1.88;;;;;;;28.21;41.42;99948.28;4996416;28;20095;-69
2022/06/19 08:58:38;;;;;;;2.38;1.80;;;;;;;28.38;41.19;99934.94;5013526;28;20025;-69
2022/06/19 09:01:37;;;;;;;2.72;1.92;;;;;;;28.26;42.33;99933.47;5016491;28;20513;-69
2022/06/19 09:07:19;;;;;;;5.85;1.73;;;;;;;28.57;41.47;99934.72;5017612;28;20053;-69
2022/06/19 09:10:06;;;;;;;4.20;2.08;;;;;;;28.51;41.84;99921.84;4999830;28;20119;-69
2022/06/19 09:12:50;;;;;;;3.13;2.17;;;;;;;28.29;42.94;99914.22;5000195;28;20150;-69
2022/06/19 09:15:28;;;;;;;3.60;2.13;;;;;;;28.49;42.40;99913.06;5017559;28;20496;-69
2022/06/19 09:18:00;;;;;;;4.38;2.50;;;;;;;28.61;42.40;99917.19;4999697;28;20037;-69
2022/06/19 09:20:32;;;;;;;;;;;;;;;28.53;42.96;99905.47;5017741;28;20033;-69
2022/06/19 09:23:18;;;;;;;2.33;1.90;;;;;;;28.76;42.28;99906.59;5017339;28;19917;-69
2022/06/19 09:26:08;;;;;;;6.03;2.65;;;;;;;28.82;42.07;99905.13;4999837;28;20033;-69
2022/06/19 09:28:45;;;;;;;4.28;2.33;;;;;;;28.69;42.42;99909.13;5017237;28;20037;-69
2022/06/19 09:31:22;;;;;;;5.25;2.08;;;;;;;28.81;41.86;99900.72;5017164;28;20092;-69
2022/06/19 09:34:14;;;;;;;4.03;2.22;;;;;;;28.17;43.05;99898.31;4999378;28;20069;-69
2022/06/19 09:36:57;;;;;;;5.25;2.50;;;;;;;28.61;42.48;99905.53;4999533;28;20037;-69
2022/06/19 09:39:30;;;;;;;4.70;2.00;;;;;;;28.66;41.99;99900.47;4999127;28;20042;-69
2022/06/19 09:41:58;;;;;;;3.55;2.30;;;;;;;28.82;41.88;99897.84;4999340;28;20041;-69
2022/06/19 09:44:44;;;;;;;2.35;2.05;;;;;;;28.56;42.68;99897.03;5016918;28;20116;-69
2022/06/19 09:47:16;;;;;;;3.67;2.17;;;;;;;28.82;41.93;99883.50;5016679;28;20030;-69
2022/06/19 09:49:49;;;;;;;2.65;1.98;;;;;;;28.96;41.92;99875.63;4999845;28;20463;-67
2022/06/19 09:52:31;;;;;;;6.13;2.17;;;;;;;29.06;41.36;99880.91;4999203;28;20050;-69
2022/06/19 09:55:08;;;;;;;;;;;;;;;28.89;42.15;99868.31;4999725;28;20040;-69
2022/06/19 09:57:50;;;;;;;3.92;2.20;;;;;;;28.87;41.80;99862.22;4998672;28;19964;-69
2022/06/19 10:00:24;;;;;;;4.47;2.05;;;;;;;29.13;41.32;99852.19;4999480;28;20038;-69
2022/06/19 10:03:01;;;;;;;4.25;1.95;;;;;;;29.20;41.36;99853.22;5016822;28;20042;-69
2022/06/19 10:05:38;;;;;;;3.95;1.70;;;;;;;29.34;41.12;99848.16;4999287;28;20049;-69
2022/06/19 10:08:17;;;;;;;6.57;2.17;;;;;;;29.29;41.61;99858.66;4998810;28;20099;-69
2022/06/19 10:10:50;;;;;;;3.08;1.83;;;;;;;29.41;41.14;99851.91;4998793;28;20099;-69
2022/06/19 10:13:25;;;;;;;4.45;2.35;;;;;;;29.55;40.91;99864.75;4998448;28;20052;-69
2022/06/19 10:15:53;;;;;;;2.47;2.08;;;;;;;29.64;40.94;99843.97;5016342;28;20381;-67
2022/06/19 10:18:51;;;;;;;3.10;1.77;;;;;;;29.77;40.43;99830.81;4998576;28;20049;-69
2022/06/19 10:24:35;;;;;;;3.45;2.25;;;;;;;29.55;41.81;99832.28;5016169;28;20041;-69
2022/06/19 10:27:24;;;;;;;4.13;2.30;;;;;;;29.31;42.77;99826.84;4998909;28;20477;-69
2022/06/19 10:30:09;;;;;;;3.78;2.03;;;;;;;29.45;41.88;99818.09;4987825;28;20038;-67
2022/06/19 10:33:00;;;;;;;3.97;2.25;;;;;;;29.59;41.28;99809.31;4998075;28;20488;-67
2022/06/19 10:35:32;;;;;;;4.88;2.40;;;;;;;29.58;42.09;99799.50;4998734;28;20037;-67
2022/06/19 10:38:40;;;;;;;3.25;1.83;;;;;;;29.92;41.26;99793.03;4998219;28;20034;-67
2022/06/19 10:42:00;;;;;;;4.03;2.03;;;;;;;29.72;41.80;99791.69;4978374;28;20121;-67
2022/06/19 10:44:23;;;;;;;3.03;2.20;;;;;;;29.59;42.43;99784.94;5015359;28;20045;-67
2022/06/19 10:47:03;;;;;;;3.28;2.15;;;;;;;29.88;41.68;99789.84;4998044;28;20080;-64
2022/06/19 10:49:45;;;;;;;2.15;1.80;;;;;;;29.80;41.12;99789.81;4998065;28;20474;-64
2022/06/19 10:52:22;;;;;;;;;;;;;;;29.74;41.91;99784.25;5019842;28;20489;-64
2022/06/19 10:54:59;;;;;;;2.90;2.13;;;;;;;29.73;42.33;99793.41;5035202;28;19974;-64
2022/06/19 10:57:46;;;;;;;6.05;2.15;;;;;;;29.15;43.09;99785.25;5035424;28;20076;-64
2022/06/19 11:00:12;;;;;;;3.97;2.20;;;;;;;29.55;42.76;99782.72;5035404;28;20041;-64
2022/06/19 11:05:54;;;;;;;3.72;2.00;;;;;;;29.75;42.41;99786.78;4954827;29;20043;-64
2022/06/19 11:08:21;;;;;;;7.03;2.30;;;;;;;29.61;42.80;99799.16;4954846;28;20067;-64
2022/06/19 11:10:52;;;;;;;3.35;2.28;;;;;;;29.75;42.65;99796.78;4979050;28;20041;-65
2022/06/19 11:13:18;;;;;;;4.32;2.80;;;;;;;29.20;43.57;99788.31;5017646;28;20034;-65
2022/06/19 11:15:58;;;;;;;3.58;2.60;;;;;;;28.99;44.68;99785.22;5016996;28;20029;-65
2022/06/19 11:18:27;;;;;;;4.40;2.33;;;;;;;28.63;45.33;99782.72;5034841;28;20033;-65
2022/06/19 11:21:11;;;;;;;3.88;2.50;;;;;;;29.01;44.62;99771.56;5034699;28;20042;-65
2022/06/19 11:23:58;;;;;;;4.18;2.45;;;;;;;29.34;43.72;99778.66;5033954;28;20025;-65
2022/06/19 11:26:38;;;;;;;3.03;2.17;;;;;;;29.60;43.23;99772.25;5034797;28;20026;-65
2022/06/19 11:29:08;;;;;;;3.40;2.38;;;;;;;29.73;43.05;99766.34;5034666;28;20033;-65
2022/06/19 11:31:37;;;;;;;3.38;1.90;;;;;;;29.70;43.05;99773.78;5034527;28;20021;-65
2022/06/19 11:37:37;;;;;;;3.75;2.22;;;;;;;28.82;43.95;99759.97;5034880;28;20094;-65
2022/06/19 11:40:05;;;;;;;4.45;2.22;;;;;;;28.33;44.89;99769.75;5034433;28;20068;-66
2022/06/19 11:42:50;;;;;;;10.00;2.38;;;;;;;26.00;47.91;99753.56;5034550;28;20055;-66
2022/06/19 11:45:15;;;;;;;5.90;1.83;;;;;;;25.12;49.77;99754.69;5034526;28;20069;-66
2022/06/19 11:47:57;;;;;;;8.15;2.10;;;;;;;25.53;49.44;99745.47;5034196;28;20064;-66
2022/06/19 11:50:29;;;;;;;6.03;2.20;;;;;;;26.01;47.83;99746.31;5034521;28;20064;-65
2022/06/19 11:53:08;;;;;;;5.80;1.90;;;;;;;26.37;46.88;99732.97;5033988;28;20061;-65
2022/06/19 11:55:47;;;;;;;4.95;1.92;;;;;;;26.72;46.64;99727.69;5034234;28;20030;-65
2022/06/19 11:58:31;;;;;;;4.85;2.15;;;;;;;26.04;47.42;99741.50;5016370;28;20125;-65
2022/06/19 12:00:58;;;;;;;9.35;2.50;;;;;;;25.70;47.95;99733.09;5034265;28;20030;-66